createdAt,value
2017-12-19T00:00:12.459Z,1029.1
2017-12-19T00:01:13.851Z,1029.2
2017-12-19T00:02:15.256Z,1029.3
2017-12-19T00:03:16.654Z,1029.2
2017-12-19T00:04:18.063Z,1029.3
2017-12-19T00:05:19.460Z,1029.4
2017-12-19T00:06:20.858Z,1029.4
2017-12-19T00:07:22.256Z,1029.5
2017-12-19T00:08:23.656Z,1029.5
2017-12-19T00:09:25.048Z,1029.6
2017-12-19T00:10:26.457Z,1029.6
2017-12-19T00:11:27.851Z,1029.7
2017-12-19T00:12:29.253Z,1029.7
2017-12-19T00:13:30.643Z,1029.8
2017-12-19T00:14:32.065Z,1029.8
2017-12-19T00:15:33.469Z,1029.8
2017-12-19T00:16:34.875Z,1029.8
2017-12-19T00:17:36.264Z,1029.9
2017-12-19T00:18:37.657Z,1030.0
2017-12-19T00:19:39.057Z,1030.0
2017-12-19T00:20:40.450Z,1030.0
2017-12-19T00:21:41.842Z,1030.1
2017-12-19T00:22:43.237Z,1030.1
2017-12-19T00:23:44.632Z,1030.1
2017-12-19T00:24:46.024Z,1030.1
2017-12-19T00:25:47.418Z,1030.1
2017-12-19T00:26:48.813Z,1030.1
2017-12-19T00:27:50.207Z,1030.1
2017-12-19T00:28:51.601Z,1030.1
2017-12-19T00:29:53.000Z,1030.0
2017-12-19T00:30:54.393Z,1030.0
2017-12-19T00:31:55.790Z,1030.1
2017-12-19T00:32:57.182Z,1030.1
2017-12-19T00:33:58.574Z,1030.2
2017-12-19T00:35:00.029Z,1030.1
2017-12-19T00:36:01.428Z,1030.2
2017-12-19T00:37:02.835Z,1030.1
2017-12-19T00:38:04.235Z,1030.1
2017-12-19T00:39:05.624Z,1030.1
2017-12-19T00:40:07.022Z,1030.1
2017-12-19T00:41:08.417Z,1030.0
2017-12-19T00:42:09.810Z,1030.1
2017-12-19T00:43:11.207Z,1030.0
2017-12-19T00:44:12.599Z,1030.0
2017-12-19T00:45:13.993Z,1030.0
2017-12-19T00:46:15.407Z,1030.0
2017-12-19T00:47:16.790Z,1030.0
2017-12-19T00:48:18.190Z,1030.0
2017-12-19T00:49:19.584Z,1030.0
2017-12-19T00:50:20.977Z,1030.0
2017-12-19T00:51:22.391Z,1030.1
2017-12-19T00:52:23.793Z,1030.1
2017-12-19T00:53:25.188Z,1030.2
2017-12-19T00:54:26.588Z,1030.2
2017-12-19T00:55:27.989Z,1030.3
2017-12-19T00:56:29.400Z,1030.3
2017-12-19T00:57:30.800Z,1030.3
2017-12-19T00:58:32.194Z,1030.3
2017-12-19T00:59:33.594Z,1030.3
2017-12-19T01:00:34.986Z,1030.3
2017-12-19T01:01:36.376Z,1030.3
2017-12-19T01:02:37.779Z,1030.3
2017-12-19T01:03:39.172Z,1030.4
2017-12-19T01:04:40.578Z,1030.4
2017-12-19T01:05:41.967Z,1030.5
2017-12-19T01:06:43.365Z,1030.4
2017-12-19T01:07:44.760Z,1030.4
2017-12-19T01:08:46.150Z,1030.4
2017-12-19T01:09:47.561Z,1030.5
2017-12-19T01:10:49.236Z,1030.4
2017-12-19T01:11:50.609Z,1030.4
2017-12-19T01:12:52.010Z,1030.4
2017-12-19T01:13:53.409Z,1030.4
2017-12-19T01:14:54.803Z,1030.4
2017-12-19T01:15:56.204Z,1030.4
2017-12-19T01:16:57.601Z,1030.4
2017-12-19T01:17:58.992Z,1030.5
2017-12-19T01:19:00.385Z,1030.4
2017-12-19T01:20:01.787Z,1030.4
2017-12-19T01:21:03.196Z,1030.5
2017-12-19T01:22:04.605Z,1030.5
2017-12-19T01:23:06.003Z,1030.5
2017-12-19T01:24:07.404Z,1030.6
2017-12-19T01:25:08.799Z,1030.6
2017-12-19T01:26:10.204Z,1030.6
2017-12-19T01:27:11.598Z,1030.6
2017-12-19T01:28:12.993Z,1030.6
2017-12-19T01:29:14.387Z,1030.7
2017-12-19T01:30:15.784Z,1030.6
2017-12-19T01:31:17.196Z,1030.6
2017-12-19T01:32:18.589Z,1030.6
2017-12-19T01:33:19.995Z,1030.6
2017-12-19T01:34:21.396Z,1030.7
2017-12-19T01:35:22.801Z,1030.6
2017-12-19T01:36:24.197Z,1030.6
2017-12-19T01:37:25.605Z,1030.6
2017-12-19T01:38:27.003Z,1030.7
2017-12-19T01:39:28.402Z,1030.7
2017-12-19T01:40:29.807Z,1030.7
2017-12-19T01:41:31.210Z,1030.7
2017-12-19T01:42:32.605Z,1030.7
2017-12-19T01:43:34.009Z,1030.8
2017-12-19T01:44:35.404Z,1030.8
2017-12-19T01:45:36.793Z,1030.8
2017-12-19T01:46:38.190Z,1030.8
2017-12-19T01:47:39.591Z,1030.9
2017-12-19T01:48:40.991Z,1030.9
2017-12-19T01:49:42.397Z,1030.9
2017-12-19T01:50:43.788Z,1031.0
2017-12-19T01:51:45.177Z,1031.0
2017-12-19T01:52:46.569Z,1031.0
2017-12-19T01:53:47.975Z,1031.0
2017-12-19T01:54:49.372Z,1031.0
2017-12-19T01:55:50.769Z,1031.0
2017-12-19T01:56:52.181Z,1031.0
2017-12-19T01:57:53.575Z,1031.0
2017-12-19T01:58:54.978Z,1031.0
2017-12-19T01:59:56.417Z,1031.0
2017-12-19T02:00:57.825Z,1031.0
2017-12-19T02:01:59.221Z,1031.0
2017-12-19T02:03:00.619Z,1031.0
2017-12-19T02:04:02.021Z,1031.0
2017-12-19T02:05:03.426Z,1031.0
2017-12-19T02:06:04.830Z,1031.0
2017-12-19T02:07:06.241Z,1031.1
2017-12-19T02:08:07.652Z,1031.0
2017-12-19T02:09:09.095Z,1031.0
2017-12-19T02:10:10.491Z,1031.0
2017-12-19T02:11:11.889Z,1031.0
2017-12-19T02:12:13.290Z,1031.0
2017-12-19T02:13:14.688Z,1031.0
2017-12-19T02:14:16.094Z,1031.0
2017-12-19T02:15:17.497Z,1031.0
2017-12-19T02:16:18.901Z,1031.0
2017-12-19T02:17:20.308Z,1031.0
2017-12-19T02:18:21.711Z,1031.0
2017-12-19T02:19:23.102Z,1030.9
2017-12-19T02:20:24.495Z,1030.9
2017-12-19T02:21:25.885Z,1030.9
2017-12-19T02:22:27.288Z,1030.9
2017-12-19T02:23:28.696Z,1031.0
2017-12-19T02:24:30.092Z,1031.0
2017-12-19T02:25:31.501Z,1030.9
2017-12-19T02:26:32.892Z,1031.0
2017-12-19T02:27:34.297Z,1031.0
2017-12-19T02:28:35.687Z,1030.9
2017-12-19T02:29:37.083Z,1030.9
2017-12-19T02:30:38.488Z,1030.9
2017-12-19T02:31:39.888Z,1030.9
2017-12-19T02:32:41.293Z,1030.9
2017-12-19T02:33:42.702Z,1030.9
2017-12-19T02:34:44.090Z,1030.9
2017-12-19T02:35:45.488Z,1030.9
2017-12-19T02:36:46.889Z,1031.0
2017-12-19T02:37:48.279Z,1030.9
2017-12-19T02:38:49.679Z,1030.9
2017-12-19T02:39:51.088Z,1030.9
2017-12-19T02:40:52.496Z,1031.0
2017-12-19T02:41:53.888Z,1031.0
2017-12-19T02:42:55.287Z,1031.0
2017-12-19T02:43:56.676Z,1030.9
2017-12-19T02:44:58.078Z,1031.0
2017-12-19T02:45:59.474Z,1031.0
2017-12-19T02:47:00.867Z,1031.0
2017-12-19T02:48:02.267Z,1031.0
2017-12-19T02:49:03.663Z,1031.0
2017-12-19T02:50:05.059Z,1031.0
2017-12-19T02:51:06.464Z,1030.9
2017-12-19T02:52:07.872Z,1031.0
2017-12-19T02:53:09.261Z,1031.0
2017-12-19T02:54:10.673Z,1031.0
2017-12-19T02:55:12.081Z,1031.0
2017-12-19T02:56:13.482Z,1031.0
2017-12-19T02:57:14.880Z,1031.0
2017-12-19T02:58:16.297Z,1031.0
2017-12-19T02:59:17.701Z,1031.0
2017-12-19T03:00:19.094Z,1031.0
2017-12-19T03:01:20.492Z,1031.0
2017-12-19T03:02:21.905Z,1031.0
2017-12-19T03:03:23.301Z,1031.0
2017-12-19T03:04:24.708Z,1031.0
2017-12-19T03:05:26.107Z,1031.0
2017-12-19T03:06:27.513Z,1031.0
2017-12-19T03:07:28.909Z,1031.0
2017-12-19T03:08:30.302Z,1031.0
2017-12-19T03:09:31.714Z,1031.0
2017-12-19T03:10:33.119Z,1031.0
2017-12-19T03:11:34.519Z,1031.0
2017-12-19T03:12:35.971Z,1031.0
2017-12-19T03:13:37.370Z,1031.0
2017-12-19T03:14:38.766Z,1031.0
2017-12-19T03:15:40.163Z,1031.0
2017-12-19T03:16:41.557Z,1031.0
2017-12-19T03:17:42.963Z,1031.0
2017-12-19T03:18:44.359Z,1031.0
2017-12-19T03:19:45.758Z,1030.9
2017-12-19T03:20:47.156Z,1031.0
2017-12-19T03:21:48.563Z,1030.9
2017-12-19T03:22:49.967Z,1030.9
2017-12-19T03:23:51.360Z,1030.9
2017-12-19T03:24:52.762Z,1031.0
2017-12-19T03:25:54.157Z,1031.0
2017-12-19T03:26:55.557Z,1030.9
2017-12-19T03:27:56.951Z,1031.0
2017-12-19T03:28:58.349Z,1031.0
2017-12-19T03:29:59.747Z,1031.0
2017-12-19T03:31:01.158Z,1031.0
2017-12-19T03:32:02.551Z,1031.0
2017-12-19T03:33:03.942Z,1031.0
2017-12-19T03:34:05.339Z,1031.0
2017-12-19T03:35:06.751Z,1031.0
2017-12-19T03:36:08.150Z,1031.0
2017-12-19T03:37:09.561Z,1031.0
2017-12-19T03:38:10.947Z,1031.0
2017-12-19T03:39:12.346Z,1030.9
2017-12-19T03:40:13.741Z,1030.9
2017-12-19T03:41:15.170Z,1030.9
2017-12-19T03:42:16.555Z,1031.0
2017-12-19T03:43:17.958Z,1030.9
2017-12-19T03:44:19.359Z,1031.0
2017-12-19T03:45:20.761Z,1031.0
2017-12-19T03:46:22.161Z,1031.0
2017-12-19T03:47:23.544Z,1031.0
2017-12-19T03:48:24.950Z,1031.0
2017-12-19T03:49:26.344Z,1030.9
2017-12-19T03:50:27.743Z,1030.9
2017-12-19T03:51:29.149Z,1031.0
2017-12-19T03:52:30.546Z,1031.0
2017-12-19T03:53:31.944Z,1031.0
2017-12-19T03:54:33.340Z,1031.0
2017-12-19T03:55:34.731Z,1031.0
2017-12-19T03:56:36.127Z,1031.0
2017-12-19T03:57:37.526Z,1031.0
2017-12-19T03:58:38.927Z,1031.1
2017-12-19T03:59:40.321Z,1031.0
2017-12-19T04:00:41.716Z,1031.0
2017-12-19T04:01:43.110Z,1031.0
2017-12-19T04:02:44.505Z,1031.0
2017-12-19T04:03:45.915Z,1031.0
2017-12-19T04:04:47.325Z,1031.1
2017-12-19T04:05:48.727Z,1031.1
2017-12-19T04:06:50.122Z,1031.0
2017-12-19T04:07:51.534Z,1031.0
2017-12-19T04:08:52.937Z,1031.1
2017-12-19T04:09:54.342Z,1031.1
2017-12-19T04:10:55.749Z,1031.1
2017-12-19T04:11:57.142Z,1031.1
2017-12-19T04:12:58.539Z,1031.1
2017-12-19T04:13:59.936Z,1031.1
2017-12-19T04:15:01.342Z,1031.1
2017-12-19T04:16:02.742Z,1031.1
2017-12-19T04:17:04.162Z,1031.2
2017-12-19T04:18:05.545Z,1031.2
2017-12-19T04:19:06.941Z,1031.1
2017-12-19T04:20:08.348Z,1031.1
2017-12-19T04:21:09.753Z,1031.1
2017-12-19T04:22:11.132Z,1031.1
2017-12-19T04:23:12.527Z,1031.1
2017-12-19T04:24:13.927Z,1031.1
2017-12-19T04:25:15.319Z,1031.1
2017-12-19T04:26:16.718Z,1031.1
2017-12-19T04:27:18.108Z,1031.1
2017-12-19T04:28:19.509Z,1031.1
2017-12-19T04:29:20.944Z,1031.1
2017-12-19T04:30:22.339Z,1031.1
2017-12-19T04:31:23.741Z,1031.1
2017-12-19T04:32:25.127Z,1031.1
2017-12-19T04:33:26.532Z,1031.1
2017-12-19T04:34:27.927Z,1031.1
2017-12-19T04:35:29.335Z,1031.1
2017-12-19T04:36:30.738Z,1031.1
2017-12-19T04:37:32.124Z,1031.1
2017-12-19T04:38:33.524Z,1031.0
2017-12-19T04:39:34.929Z,1031.0
2017-12-19T04:40:36.324Z,1031.0
2017-12-19T04:41:37.722Z,1031.0
2017-12-19T04:42:39.121Z,1031.0
2017-12-19T04:43:40.518Z,1031.0
2017-12-19T04:44:41.913Z,1031.0
2017-12-19T04:45:43.307Z,1031.0
2017-12-19T04:46:44.701Z,1031.0
2017-12-19T04:47:46.110Z,1031.0
2017-12-19T04:48:47.505Z,1031.0
2017-12-19T04:49:48.901Z,1031.0
2017-12-19T04:50:50.291Z,1031.0
2017-12-19T04:51:51.682Z,1030.9
2017-12-19T04:52:53.091Z,1030.9
2017-12-19T04:53:54.487Z,1030.9
2017-12-19T04:54:55.880Z,1031.0
2017-12-19T04:55:57.284Z,1031.0
2017-12-19T04:56:58.678Z,1030.9
2017-12-19T04:58:00.078Z,1030.9
2017-12-19T04:59:01.477Z,1031.0
2017-12-19T05:00:02.869Z,1030.9
2017-12-19T05:01:04.266Z,1030.9
2017-12-19T05:02:05.667Z,1030.9
2017-12-19T05:03:07.069Z,1030.8
2017-12-19T05:04:08.468Z,1030.8
2017-12-19T05:05:09.863Z,1030.8
2017-12-19T05:06:12.033Z,1030.7
2017-12-19T05:07:12.620Z,1030.8
2017-12-19T05:08:14.010Z,1030.8
2017-12-19T05:09:15.409Z,1030.8
2017-12-19T05:10:16.813Z,1030.8
2017-12-19T05:11:18.219Z,1030.8
2017-12-19T05:12:19.629Z,1030.8
2017-12-19T05:13:21.085Z,1030.8
2017-12-19T05:14:22.500Z,1030.8
2017-12-19T05:15:23.908Z,1030.8
2017-12-19T05:16:25.365Z,1030.7
2017-12-19T05:17:26.769Z,1030.8
2017-12-19T05:18:28.164Z,1030.8
2017-12-19T05:19:29.562Z,1030.8
2017-12-19T05:20:30.968Z,1030.8
2017-12-19T05:21:32.367Z,1030.8
2017-12-19T05:22:33.775Z,1030.9
2017-12-19T05:23:35.177Z,1030.9
2017-12-19T05:24:36.579Z,1031.0
2017-12-19T05:25:37.969Z,1031.0
2017-12-19T05:26:39.363Z,1031.0
2017-12-19T05:27:40.764Z,1031.1
2017-12-19T05:28:42.175Z,1031.1
2017-12-19T05:29:43.590Z,1031.1
2017-12-19T05:30:44.989Z,1031.2
2017-12-19T05:31:46.397Z,1031.2
2017-12-19T05:32:47.804Z,1031.2
2017-12-19T05:33:49.220Z,1031.2
2017-12-19T05:34:50.632Z,1031.2
2017-12-19T05:35:52.054Z,1031.1
2017-12-19T05:36:53.449Z,1031.2
2017-12-19T05:37:54.852Z,1031.1
2017-12-19T05:38:56.264Z,1031.1
2017-12-19T05:39:57.663Z,1031.1
2017-12-19T05:40:59.062Z,1031.2
2017-12-19T05:42:00.454Z,1031.2
2017-12-19T05:43:01.847Z,1031.2
2017-12-19T05:44:03.257Z,1031.2
2017-12-19T05:45:04.649Z,1031.2
2017-12-19T05:46:06.048Z,1031.2
2017-12-19T05:47:07.458Z,1031.2
2017-12-19T05:48:08.859Z,1031.2
2017-12-19T05:49:10.256Z,1031.3
2017-12-19T05:50:11.664Z,1031.3
2017-12-19T05:51:13.061Z,1031.3
2017-12-19T05:52:14.455Z,1031.4
2017-12-19T05:53:16.416Z,1031.4
2017-12-19T05:54:17.810Z,1031.4
2017-12-19T05:55:19.207Z,1031.4
2017-12-19T05:56:20.605Z,1031.5
2017-12-19T05:57:22.002Z,1031.4
2017-12-19T05:58:23.395Z,1031.5
2017-12-19T05:59:24.827Z,1031.5
2017-12-19T06:00:26.205Z,1031.5
2017-12-19T06:01:27.601Z,1031.5
2017-12-19T06:02:28.994Z,1031.5
2017-12-19T06:03:30.409Z,1031.6
2017-12-19T06:04:31.798Z,1031.6
2017-12-19T06:05:33.197Z,1031.6
2017-12-19T06:06:34.599Z,1031.6
2017-12-19T06:07:35.991Z,1031.6
2017-12-19T06:08:37.395Z,1031.6
2017-12-19T06:09:38.790Z,1031.7
2017-12-19T06:10:40.180Z,1031.7
2017-12-19T06:11:41.587Z,1031.7
2017-12-19T06:12:42.989Z,1031.7
2017-12-19T06:13:44.404Z,1031.7
2017-12-19T06:14:45.806Z,1031.7
2017-12-19T06:15:47.218Z,1031.7
2017-12-19T06:16:48.611Z,1031.7
2017-12-19T06:17:50.006Z,1031.7
2017-12-19T06:18:51.409Z,1031.8
2017-12-19T06:19:52.802Z,1031.8
2017-12-19T06:20:54.195Z,1031.8
2017-12-19T06:21:55.599Z,1031.8
2017-12-19T06:22:56.998Z,1031.8
2017-12-19T06:23:58.402Z,1031.8
2017-12-19T06:24:59.811Z,1031.9
2017-12-19T06:26:01.202Z,1031.9
2017-12-19T06:27:02.606Z,1031.8
2017-12-19T06:28:03.997Z,1031.9
2017-12-19T06:29:05.390Z,1031.9
2017-12-19T06:30:06.780Z,1031.9
2017-12-19T06:31:08.184Z,1032.0
2017-12-19T06:32:09.577Z,1032.0
2017-12-19T06:33:10.972Z,1032.0
2017-12-19T06:34:12.371Z,1032.0
2017-12-19T06:35:13.761Z,1032.0
2017-12-19T06:36:15.167Z,1031.9
2017-12-19T06:37:16.578Z,1031.9
2017-12-19T06:38:17.985Z,1032.0
2017-12-19T06:39:19.393Z,1032.0
2017-12-19T06:40:20.775Z,1031.9
2017-12-19T06:41:22.190Z,1031.9
2017-12-19T06:42:23.585Z,1032.0
2017-12-19T06:43:24.994Z,1032.0
2017-12-19T06:44:26.400Z,1032.0
2017-12-19T06:45:27.797Z,1032.0
2017-12-19T06:46:29.190Z,1032.1
2017-12-19T06:47:30.583Z,1032.1
2017-12-19T06:48:31.985Z,1032.0
2017-12-19T06:49:33.390Z,1032.0
2017-12-19T06:50:34.797Z,1032.0
2017-12-19T06:51:36.193Z,1032.0
2017-12-19T06:52:37.601Z,1032.1
2017-12-19T06:53:39.005Z,1032.1
2017-12-19T06:54:40.404Z,1032.1
2017-12-19T06:55:41.806Z,1032.1
2017-12-19T06:56:43.223Z,1032.1
2017-12-19T06:57:44.619Z,1032.1
2017-12-19T06:58:46.018Z,1032.1
2017-12-19T06:59:47.413Z,1032.1
2017-12-19T07:00:48.810Z,1032.1
2017-12-19T07:01:50.214Z,1032.2
2017-12-19T07:02:51.616Z,1032.2
2017-12-19T07:03:53.013Z,1032.2
2017-12-19T07:04:54.420Z,1032.2
2017-12-19T07:05:55.802Z,1032.2
2017-12-19T07:06:57.196Z,1032.2
2017-12-19T07:07:58.616Z,1032.2
2017-12-19T07:09:00.012Z,1032.1
2017-12-19T07:10:01.411Z,1032.1
2017-12-19T07:11:02.800Z,1032.1
2017-12-19T07:12:04.195Z,1032.2
2017-12-19T07:13:05.607Z,1032.2
2017-12-19T07:14:07.005Z,1032.1
2017-12-19T07:15:08.398Z,1032.2
2017-12-19T07:16:09.794Z,1032.2
2017-12-19T07:17:11.190Z,1032.1
2017-12-19T07:18:12.589Z,1032.2
2017-12-19T07:19:13.984Z,1032.2
2017-12-19T07:20:15.382Z,1032.3
2017-12-19T07:21:16.778Z,1032.2
2017-12-19T07:22:18.176Z,1032.3
2017-12-19T07:23:19.572Z,1032.3
2017-12-19T07:24:20.969Z,1032.3
2017-12-19T07:25:22.372Z,1032.3
2017-12-19T07:26:23.783Z,1032.2
2017-12-19T07:27:25.173Z,1032.3
2017-12-19T07:28:26.568Z,1032.2
2017-12-19T07:29:27.961Z,1032.3
2017-12-19T07:30:29.363Z,1032.2
2017-12-19T07:31:30.798Z,1032.3
2017-12-19T07:32:32.206Z,1032.3
2017-12-19T07:33:33.605Z,1032.3
2017-12-19T07:34:34.999Z,1032.3
2017-12-19T07:35:36.393Z,1032.4
2017-12-19T07:36:37.799Z,1032.4
2017-12-19T07:37:39.231Z,1032.4
2017-12-19T07:38:40.629Z,1032.4
2017-12-19T07:39:42.025Z,1032.4
2017-12-19T07:40:43.423Z,1032.4
2017-12-19T07:41:44.828Z,1032.4
2017-12-19T07:42:46.222Z,1032.4
2017-12-19T07:43:47.622Z,1032.4
2017-12-19T07:44:49.022Z,1032.4
2017-12-19T07:45:50.415Z,1032.4
2017-12-19T07:46:51.814Z,1032.4
2017-12-19T07:47:53.216Z,1032.4
2017-12-19T07:48:54.626Z,1032.4
2017-12-19T07:49:56.023Z,1032.4
2017-12-19T07:50:57.449Z,1032.4
2017-12-19T07:51:58.811Z,1032.4
2017-12-19T07:53:00.213Z,1032.4
2017-12-19T07:54:01.612Z,1032.4
2017-12-19T07:55:03.018Z,1032.4
2017-12-19T07:56:04.503Z,1032.4
2017-12-19T07:57:05.911Z,1032.4
2017-12-19T07:58:07.326Z,1032.4
2017-12-19T07:59:09.532Z,1032.4
2017-12-19T08:00:10.935Z,1032.4
2017-12-19T08:01:12.354Z,1032.4
2017-12-19T08:02:13.778Z,1032.4
2017-12-19T08:03:15.172Z,1032.4
2017-12-19T08:04:16.586Z,1032.4
2017-12-19T08:05:18.647Z,1032.4
2017-12-19T08:06:20.046Z,1032.5
2017-12-19T08:07:21.444Z,1032.4
2017-12-19T08:08:22.844Z,1032.4
2017-12-19T08:09:24.253Z,1032.4
2017-12-19T08:10:25.656Z,1032.4
2017-12-19T08:11:27.068Z,1032.4
2017-12-19T08:12:28.468Z,1032.4
2017-12-19T08:13:29.865Z,1032.4
2017-12-19T08:14:31.265Z,1032.4
2017-12-19T08:15:32.660Z,1032.5
2017-12-19T08:16:34.063Z,1032.4
2017-12-19T08:17:35.456Z,1032.4
2017-12-19T08:18:36.868Z,1032.5
2017-12-19T08:19:38.263Z,1032.4
2017-12-19T08:20:39.661Z,1032.5
2017-12-19T08:21:41.065Z,1032.4
2017-12-19T08:22:42.462Z,1032.4
2017-12-19T08:23:43.861Z,1032.4
2017-12-19T08:24:45.258Z,1032.4
2017-12-19T08:25:46.654Z,1032.4
2017-12-19T08:26:48.060Z,1032.4
2017-12-19T08:27:49.466Z,1032.4
2017-12-19T08:28:50.864Z,1032.4
2017-12-19T08:29:52.268Z,1032.4
2017-12-19T08:30:53.679Z,1032.4
2017-12-19T08:31:55.083Z,1032.5
2017-12-19T08:32:56.499Z,1032.5
2017-12-19T08:33:57.889Z,1032.4
2017-12-19T08:34:59.286Z,1032.5
2017-12-19T08:36:00.699Z,1032.5
2017-12-19T08:37:02.101Z,1032.5
2017-12-19T08:38:03.500Z,1032.5
2017-12-19T08:39:04.895Z,1032.5
2017-12-19T08:40:06.293Z,1032.6
2017-12-19T08:41:08.849Z,1032.6
2017-12-19T08:42:11.426Z,1032.6
2017-12-19T08:43:13.011Z,1032.6
2017-12-19T08:44:14.415Z,1032.6
2017-12-19T08:45:15.814Z,1032.6
2017-12-19T08:46:17.227Z,1032.6
2017-12-19T08:47:18.625Z,1032.6
2017-12-19T08:48:20.026Z,1032.7
2017-12-19T08:49:21.461Z,1032.7
2017-12-19T08:50:22.871Z,1032.7
2017-12-19T08:51:24.268Z,1032.7
2017-12-19T08:52:26.445Z,1032.7
2017-12-19T08:53:27.850Z,1032.7
2017-12-19T08:54:29.265Z,1032.7
2017-12-19T08:55:30.739Z,1032.7
2017-12-19T08:56:32.141Z,1032.7
2017-12-19T08:57:33.546Z,1032.7
2017-12-19T08:58:34.932Z,1032.7
2017-12-19T08:59:36.343Z,1032.7
2017-12-19T09:00:37.746Z,1032.7
2017-12-19T09:01:39.165Z,1032.7
2017-12-19T09:02:40.564Z,1032.7
2017-12-19T09:03:41.963Z,1032.7
2017-12-19T09:04:43.361Z,1032.8
2017-12-19T09:05:44.777Z,1032.8
2017-12-19T09:06:46.192Z,1032.8
2017-12-19T09:07:47.593Z,1032.8
2017-12-19T09:08:48.982Z,1032.8
2017-12-19T09:09:50.386Z,1032.8
2017-12-19T09:10:51.789Z,1032.8
2017-12-19T09:11:53.193Z,1032.8
2017-12-19T09:12:54.597Z,1032.8
2017-12-19T09:13:55.996Z,1032.8
2017-12-19T09:14:57.423Z,1032.9
2017-12-19T09:15:58.832Z,1032.9
2017-12-19T09:17:00.234Z,1032.8
2017-12-19T09:18:01.635Z,1032.9
2017-12-19T09:19:03.040Z,1032.9
2017-12-19T09:20:04.451Z,1032.9
2017-12-19T09:21:05.852Z,1032.9
2017-12-19T09:22:07.250Z,1032.9
2017-12-19T09:23:08.643Z,1032.9
2017-12-19T09:24:10.048Z,1032.9
2017-12-19T09:25:11.456Z,1032.8
2017-12-19T09:26:12.871Z,1032.9
2017-12-19T09:27:14.269Z,1032.9
2017-12-19T09:28:15.673Z,1032.9
2017-12-19T09:29:17.074Z,1032.9
2017-12-19T09:30:18.472Z,1032.9
2017-12-19T09:31:19.880Z,1032.9
2017-12-19T09:32:21.284Z,1032.9
2017-12-19T09:33:22.688Z,1032.9
2017-12-19T09:34:24.110Z,1032.9
2017-12-19T09:35:25.511Z,1032.9
2017-12-19T09:36:26.913Z,1033.0
2017-12-19T09:37:28.320Z,1033.0
2017-12-19T09:38:29.732Z,1033.0
2017-12-19T09:39:31.147Z,1033.0
2017-12-19T09:40:32.553Z,1033.0
2017-12-19T09:41:33.960Z,1033.0
2017-12-19T09:42:35.371Z,1033.0
2017-12-19T09:43:36.781Z,1033.0
2017-12-19T09:44:38.189Z,1033.0
2017-12-19T09:45:39.644Z,1033.0
2017-12-19T09:46:41.039Z,1033.0
2017-12-19T09:47:42.442Z,1033.0
2017-12-19T09:48:43.848Z,1033.0
2017-12-19T09:49:45.248Z,1033.0
2017-12-19T09:50:46.644Z,1033.0
2017-12-19T09:51:48.049Z,1033.0
2017-12-19T09:52:49.453Z,1033.0
2017-12-19T09:53:50.852Z,1033.0
2017-12-19T09:54:52.252Z,1033.0
2017-12-19T09:55:53.649Z,1032.9
2017-12-19T09:56:55.057Z,1032.9
2017-12-19T09:57:56.457Z,1032.9
2017-12-19T09:58:57.858Z,1032.9
2017-12-19T09:59:59.262Z,1033.0
2017-12-19T10:01:00.671Z,1033.0
2017-12-19T10:02:02.070Z,1033.0
2017-12-19T10:03:03.471Z,1033.0
2017-12-19T10:04:04.880Z,1033.0
2017-12-19T10:05:06.290Z,1033.0
2017-12-19T10:06:07.687Z,1033.0
2017-12-19T10:07:09.101Z,1033.0
2017-12-19T10:08:10.511Z,1033.0
2017-12-19T10:09:11.920Z,1033.0
2017-12-19T10:10:13.327Z,1033.0
2017-12-19T10:11:14.727Z,1033.0
2017-12-19T10:12:16.188Z,1033.1
2017-12-19T10:13:17.533Z,1033.1
2017-12-19T10:14:18.934Z,1033.1
2017-12-19T10:15:20.332Z,1033.1
2017-12-19T10:16:21.732Z,1033.1
2017-12-19T10:17:23.142Z,1033.1
2017-12-19T10:18:24.557Z,1033.1
2017-12-19T10:19:25.971Z,1033.1
2017-12-19T10:20:27.368Z,1033.2
2017-12-19T10:21:28.770Z,1033.1
2017-12-19T10:22:30.181Z,1033.1
2017-12-19T10:23:31.598Z,1033.1
2017-12-19T10:24:33.012Z,1033.1
2017-12-19T10:25:34.417Z,1033.1
2017-12-19T10:26:35.811Z,1033.1
2017-12-19T10:27:37.219Z,1033.1
2017-12-19T10:28:38.632Z,1033.1
2017-12-19T10:29:40.040Z,1033.1
2017-12-19T10:30:41.443Z,1033.1
2017-12-19T10:31:42.886Z,1033.1
2017-12-19T10:32:44.528Z,1033.1
2017-12-19T10:33:45.923Z,1033.1
2017-12-19T10:34:47.316Z,1033.0
2017-12-19T10:35:48.749Z,1033.0
2017-12-19T10:36:50.149Z,1033.0
2017-12-19T10:37:51.565Z,1033.0
2017-12-19T10:38:52.949Z,1033.0
2017-12-19T10:39:54.363Z,1033.1
2017-12-19T10:40:55.760Z,1033.1
2017-12-19T10:41:57.168Z,1033.1
2017-12-19T10:42:58.578Z,1033.1
2017-12-19T10:43:59.992Z,1033.1
2017-12-19T10:45:01.402Z,1033.1
2017-12-19T10:46:02.794Z,1033.1
2017-12-19T10:47:04.198Z,1033.1
2017-12-19T10:48:05.598Z,1033.1
2017-12-19T10:49:07.557Z,1033.1
2017-12-19T10:50:08.955Z,1033.0
2017-12-19T10:51:10.359Z,1033.0
2017-12-19T10:52:11.763Z,1033.1
2017-12-19T10:53:13.161Z,1033.1
2017-12-19T10:54:14.565Z,1033.1
2017-12-19T10:55:15.979Z,1033.1
2017-12-19T10:56:17.381Z,1033.1
2017-12-19T10:57:18.787Z,1033.1
2017-12-19T10:58:20.205Z,1033.0
2017-12-19T10:59:21.710Z,1033.0
2017-12-19T11:00:23.189Z,1033.1
2017-12-19T11:01:24.592Z,1033.0
2017-12-19T11:02:25.988Z,1033.0
2017-12-19T11:03:27.396Z,1033.0
2017-12-19T11:04:29.107Z,1033.0
2017-12-19T11:05:30.521Z,1033.0
2017-12-19T11:06:31.931Z,1033.0
2017-12-19T11:07:33.328Z,1033.0
2017-12-19T11:08:34.737Z,1033.0
2017-12-19T11:09:36.140Z,1033.0
2017-12-19T11:10:38.071Z,1033.0
2017-12-19T11:11:39.472Z,1033.0
2017-12-19T11:12:40.873Z,1033.0
2017-12-19T11:13:42.273Z,1033.0
2017-12-19T11:14:43.670Z,1033.0
2017-12-19T11:15:45.079Z,1033.0
2017-12-19T11:16:46.476Z,1033.0
2017-12-19T11:17:47.907Z,1033.0
2017-12-19T11:18:49.317Z,1033.0
2017-12-19T11:19:50.719Z,1033.0
2017-12-19T11:20:52.126Z,1032.9
2017-12-19T11:21:53.530Z,1032.9
2017-12-19T11:22:55.768Z,1033.0
2017-12-19T11:23:57.166Z,1033.0
2017-12-19T11:24:58.657Z,1032.9
2017-12-19T11:26:00.047Z,1032.9
2017-12-19T11:27:01.457Z,1032.9
2017-12-19T11:28:07.715Z,1032.9
2017-12-19T11:29:09.077Z,1033.0
2017-12-19T11:30:10.487Z,1033.0
2017-12-19T11:31:12.665Z,1032.9
2017-12-19T11:32:14.068Z,1033.0
2017-12-19T11:33:15.475Z,1033.0
2017-12-19T11:34:16.880Z,1033.0
2017-12-19T11:35:18.305Z,1033.0
2017-12-19T11:36:19.709Z,1032.9
2017-12-19T11:37:21.113Z,1033.0
2017-12-19T11:38:22.529Z,1032.9
2017-12-19T11:39:23.937Z,1033.0
2017-12-19T11:40:25.342Z,1033.0
2017-12-19T11:41:26.750Z,1033.0
2017-12-19T11:42:28.150Z,1032.9
2017-12-19T11:43:29.573Z,1032.9
2017-12-19T11:44:30.993Z,1032.9
2017-12-19T11:45:32.392Z,1033.0
2017-12-19T11:46:33.792Z,1032.9
2017-12-19T11:47:35.204Z,1032.9
2017-12-19T11:48:36.607Z,1032.9
2017-12-19T11:49:38.010Z,1032.8
2017-12-19T11:50:39.418Z,1032.8
2017-12-19T11:51:40.833Z,1032.8
2017-12-19T11:52:42.231Z,1032.7
2017-12-19T11:53:43.642Z,1032.7
2017-12-19T11:54:45.044Z,1032.7
2017-12-19T11:55:46.454Z,1032.7
2017-12-19T11:56:47.862Z,1032.7
2017-12-19T11:57:49.268Z,1032.7
2017-12-19T11:58:50.683Z,1032.7
2017-12-19T11:59:52.084Z,1032.7
2017-12-19T12:00:53.486Z,1032.7
2017-12-19T12:01:54.899Z,1032.7
2017-12-19T12:02:56.291Z,1032.8
2017-12-19T12:03:57.698Z,1032.7
2017-12-19T12:04:59.094Z,1032.7
2017-12-19T12:06:00.496Z,1032.7
2017-12-19T12:07:01.904Z,1032.7
2017-12-19T12:08:03.313Z,1032.7
2017-12-19T12:09:04.713Z,1032.7
2017-12-19T12:10:06.115Z,1032.7
2017-12-19T12:11:07.516Z,1032.7
2017-12-19T12:12:08.933Z,1032.7
2017-12-19T12:13:10.353Z,1032.7
2017-12-19T12:14:11.759Z,1032.6
2017-12-19T12:15:13.160Z,1032.6
2017-12-19T12:16:14.559Z,1032.6
2017-12-19T12:17:15.957Z,1032.6
2017-12-19T12:18:17.358Z,1032.6
2017-12-19T12:19:18.757Z,1032.6
2017-12-19T12:20:20.168Z,1032.6
2017-12-19T12:21:21.582Z,1032.5
2017-12-19T12:22:22.977Z,1032.5
2017-12-19T12:23:24.382Z,1032.5
2017-12-19T12:24:25.775Z,1032.5
2017-12-19T12:25:27.174Z,1032.6
2017-12-19T12:26:28.577Z,1032.5
2017-12-19T12:27:29.982Z,1032.5
2017-12-19T12:28:31.442Z,1032.5
2017-12-19T12:29:32.790Z,1032.4
2017-12-19T12:30:34.230Z,1032.4
2017-12-19T12:31:35.684Z,1032.4
2017-12-19T12:32:37.046Z,1032.5
2017-12-19T12:33:38.449Z,1032.5
2017-12-19T12:34:39.864Z,1032.5
2017-12-19T12:35:41.266Z,1032.5
2017-12-19T12:36:42.675Z,1032.5
2017-12-19T12:37:44.074Z,1032.5
2017-12-19T12:38:45.481Z,1032.5
2017-12-19T12:39:46.919Z,1032.5
2017-12-19T12:40:48.321Z,1032.5
2017-12-19T12:41:49.746Z,1032.5
2017-12-19T12:42:51.148Z,1032.5
2017-12-19T12:43:52.547Z,1032.5
2017-12-19T12:44:53.953Z,1032.5
2017-12-19T12:45:57.292Z,1032.5